Time;durP1;ratioP1;P1;durP2;ratioP2;P2;SDS_P1;SDS_P2;PMS_P1;PMS_P2;Temp;Humidity;BMP_temperature;BMP_pressure;BME280_temperature;BME280_humidity;BME280_pressure;Samples;Min_cycle;Max_cycle;Signal;HPM_P1;HPM_P2
2022/06/21 00:02:12;;;;;;;25.67;4.85;;;;;;;;;;5039532;28;21498;-71
2022/06/21 00:04:38;;;;;;;22.67;4.53;;;;;;;;;;5038544;28;20111;-73
2022/06/21 00:07:05;;;;;;;25.55;4.82;;;;;;;;;;5039375;28;20053;-72
2022/06/21 00:09:31;;;;;;;22.27;4.40;;;;;;;;;;5039615;28;20964;-74
2022/06/21 00:11:57;;;;;;;27.08;4.55;;;;;;;;;;5039598;28;20137;-68
2022/06/21 00:14:23;;;;;;;25.58;4.95;;;;;;;;;;5038196;28;20057;-70
2022/06/21 00:16:49;;;;;;;27.13;4.60;;;;;;;;;;5038381;28;20052;-68
2022/06/21 00:19:21;;;;;;;28.15;5.72;;;;;;;;;;5037837;28;20545;-69
2022/06/21 00:21:48;;;;;;;20.02;4.22;;;;;;;;;;5038219;28;20052;-75
2022/06/21 00:24:16;;;;;;;22.52;4.10;;;;;;;;;;5038523;28;20075;-71
2022/06/21 00:26:43;;;;;;;24.05;4.68;;;;;;;;;;5034530;28;20125;-77
2022/06/21 00:29:10;;;;;;;24.63;4.30;;;;;;;;;;5038003;28;20087;-73
2022/06/21 00:31:37;;;;;;;27.88;5.15;;;;;;;;;;5039637;28;20378;-75
2022/06/21 00:34:11;;;;;;;22.58;4.80;;;;;;;;;;5039239;28;20060;-73
2022/06/21 00:36:37;;;;;;;21.77;3.97;;;;;;;;;;5036652;28;20273;-72
2022/06/21 00:39:04;;;;;;;26.33;5.00;;;;;;;;;;5039064;28;20049;-69
2022/06/21 00:41:54;;;;;;;22.60;4.30;;;;;;;;;;5037048;28;20507;-75
2022/06/21 00:44:29;;;;;;;20.58;4.10;;;;;;;;;;5035356;28;20049;-73
2022/06/21 00:47:06;;;;;;;21.38;4.10;;;;;;;;;;5035426;28;20045;-70
2022/06/21 00:49:39;;;;;;;23.80;3.67;;;;;;;;;;5034042;28;20136;-70
2022/06/21 00:52:13;;;;;;;18.25;3.60;;;;;;;;;;5035183;28;20049;-76
2022/06/21 00:55:35;;;;;;;16.08;3.70;;;;;;;;;;5038454;28;20482;-71
2022/06/21 00:58:01;;;;;;;24.63;3.88;;;;;;;;;;5026208;28;20064;-75
2022/06/21 01:00:38;;;;;;;21.83;4.38;;;;;;;;;;5034950;28;20045;-68
2022/06/21 01:03:17;;;;;;;18.13;3.83;;;;;;;;;;5036874;28;20370;-74
2022/06/21 01:05:45;;;;;;;18.52;3.80;;;;;;;;;;5038030;28;20053;-72
2022/06/21 01:08:19;;;;;;;15.70;3.17;;;;;;;;;;5033994;28;20045;-71
2022/06/21 01:10:48;;;;;;;18.40;3.97;;;;;;;;;;5036509;28;20041;-70
2022/06/21 01:13:20;;;;;;;16.75;3.22;;;;;;;;;;5039383;28;20393;-72
2022/06/21 01:15:48;;;;;;;19.85;3.70;;;;;;;;;;5037248;28;20052;-67
2022/06/21 01:18:17;;;;;;;18.88;3.40;;;;;;;;;;5035250;28;20045;-73
2022/06/21 01:20:47;;;;;;;12.98;3.42;;;;;;;;;;5036011;28;20049;-75
2022/06/21 01:23:42;;;;;;;19.48;3.35;;;;;;;;;;5036745;28;20049;-72
2022/06/21 01:26:26;;;;;;;;;;;;;;;;;;5032936;28;20041;-74
2022/06/21 01:28:52;;;;;;;20.35;3.45;;;;;;;;;;5036848;28;19929;-72
2022/06/21 01:31:19;;;;;;;18.45;3.60;;;;;;;;;;5037579;28;20059;-68
2022/06/21 01:33:45;;;;;;;16.10;3.25;;;;;;;;;;5036625;28;20077;-72
2022/06/21 01:36:28;;;;;;;19.70;3.70;;;;;;;;;;5032543;28;20115;-77
2022/06/21 01:39:08;;;;;;;15.20;3.38;;;;;;;;;;5036324;28;20049;-67
2022/06/21 01:41:51;;;;;;;14.68;3.40;;;;;;;;;;5036763;28;20057;-66
2022/06/21 01:44:26;;;;;;;22.35;3.85;;;;;;;;;;5034502;28;20053;-72
2022/06/21 01:46:53;;;;;;;15.85;3.80;;;;;;;;;;5031527;28;20129;-72
2022/06/21 01:49:23;;;;;;;16.27;3.67;;;;;;;;;;5035915;28;20533;-70
2022/06/21 01:51:54;;;;;;;13.90;3.92;;;;;;;;;;5033093;28;20065;-69
2022/06/21 01:54:23;;;;;;;21.88;3.72;;;;;;;;;;5036245;28;20049;-70
2022/06/21 01:56:50;;;;;;;17.25;3.78;;;;;;;;;;5033686;28;20057;-77
2022/06/21 01:59:26;;;;;;;19.63;3.55;;;;;;;;;;5035203;28;20582;-68
2022/06/21 02:02:04;;;;;;;23.77;4.05;;;;;;;;;;5033884;28;20581;-69
2022/06/21 02:04:36;;;;;;;16.48;3.55;;;;;;;;;;5033861;28;20048;-69
2022/06/21 02:07:06;;;;;;;23.00;4.55;;;;;;;;;;5033579;28;20044;-75
2022/06/21 02:09:42;;;;;;;26.90;3.90;;;;;;;;;;5037303;28;20447;-70
2022/06/21 02:12:12;;;;;;;21.42;4.13;;;;;;;;;;5036965;28;20103;-72
2022/06/21 02:14:50;;;;;;;19.15;4.25;;;;;;;;;;5038959;28;20124;-69
2022/06/21 02:17:19;;;;;;;19.10;4.03;;;;;;;;;;5035126;28;20064;-67
2022/06/21 02:20:10;;;;;;;23.05;4.15;;;;;;;;;;5031482;28;20044;-74
2022/06/21 02:22:37;;;;;;;18.90;3.83;;;;;;;;;;5031134;28;20049;-70
2022/06/21 02:25:03;;;;;;;13.63;3.40;;;;;;;;;;5039119;28;20522;-72
2022/06/21 02:27:34;;;;;;;15.00;4.00;;;;;;;;;;5033367;28;20048;-70
2022/06/21 02:30:03;;;;;;;18.50;3.80;;;;;;;;;;5032971;28;20049;-69
2022/06/21 02:32:34;;;;;;;19.63;4.10;;;;;;;;;;5035186;28;20071;-68
2022/06/21 02:35:18;;;;;;;20.20;4.38;;;;;;;;;;5036594;28;20106;-73
2022/06/21 02:37:46;;;;;;;16.57;4.23;;;;;;;;;;5034278;28;20045;-69
2022/06/21 02:40:26;;;;;;;17.30;3.78;;;;;;;;;;5034051;28;20049;-72
2022/06/21 02:42:56;;;;;;;15.55;3.80;;;;;;;;;;5032524;28;20114;-72
2022/06/21 02:45:54;;;;;;;19.63;3.45;;;;;;;;;;5033087;28;20053;-73
2022/06/21 02:48:26;;;;;;;14.57;3.35;;;;;;;;;;5030570;28;20063;-70
2022/06/21 02:50:57;;;;;;;19.92;4.10;;;;;;;;;;5032808;28;20410;-68
2022/06/21 02:53:36;;;;;;;20.08;4.18;;;;;;;;;;5034005;28;20542;-70
2022/06/21 02:56:07;;;;;;;15.75;3.88;;;;;;;;;;5033964;28;20048;-72
2022/06/21 02:58:40;;;;;;;17.77;3.95;;;;;;;;;;5033761;28;20052;-78
2022/06/21 03:01:17;;;;;;;17.25;3.40;;;;;;;;;;5035162;28;20053;-75
2022/06/21 03:03:44;;;;;;;18.92;4.13;;;;;;;;;;5034430;28;20065;-68
2022/06/21 03:06:14;;;;;;;17.55;3.28;;;;;;;;;;5032259;28;20052;-72
2022/06/21 03:08:49;;;;;;;21.95;4.30;;;;;;;;;;5034276;28;20135;-75
2022/06/21 03:11:16;;;;;;;18.92;3.60;;;;;;;;;;5035934;28;20068;-70
2022/06/21 03:13:42;;;;;;;17.08;3.55;;;;;;;;;;5035364;28;20041;-69
2022/06/21 03:16:13;;;;;;;17.58;3.45;;;;;;;;;;5037238;28;20110;-78
2022/06/21 03:18:44;;;;;;;13.43;3.55;;;;;;;;;;5031158;28;20069;-74
2022/06/21 03:21:13;;;;;;;16.05;3.55;;;;;;;;;;5049119;28;20470;-69
2022/06/21 03:23:41;;;;;;;17.83;3.92;;;;;;;;;;5037197;28;20041;-69
2022/06/21 03:26:08;;;;;;;17.60;3.50;;;;;;;;;;5034110;28;20060;-71
2022/06/21 03:28:41;;;;;;;17.65;3.75;;;;;;;;;;5035223;28;20136;-73
2022/06/21 03:31:19;;;;;;;16.73;3.75;;;;;;;;;;5031613;28;20521;-70
2022/06/21 03:33:49;;;;;;;26.52;3.92;;;;;;;;;;5031674;28;20041;-70
2022/06/21 03:36:19;;;;;;;19.17;3.80;;;;;;;;;;5032104;28;20041;-71
2022/06/21 03:38:49;;;;;;;16.08;3.80;;;;;;;;;;5034893;28;20038;-67
2022/06/21 03:44:07;;;;;;;20.15;4.30;;;;;;;;;;5035714;28;20532;-73
2022/06/21 03:46:52;;;;;;;16.17;4.55;;;;;;;;;;5033002;28;20503;-72
2022/06/21 03:49:24;;;;;;;14.55;3.97;;;;;;;;;;5035975;28;20045;-70
2022/06/21 03:51:53;;;;;;;17.20;4.15;;;;;;;;;;5032607;28;20056;-73
2022/06/21 03:54:39;;;;;;;20.35;4.90;;;;;;;;;;5036011;28;20095;-78
2022/06/21 03:57:12;;;;;;;20.55;4.47;;;;;;;;;;5035738;28;20057;-67
2022/06/21 03:59:51;;;;;;;19.40;4.63;;;;;;;;;;5032087;28;20072;-69
2022/06/21 04:02:27;;;;;;;21.90;4.78;;;;;;;;;;5034568;28;20041;-72
2022/06/21 04:05:00;;;;;;;15.57;4.40;;;;;;;;;;5034422;28;20057;-71
2022/06/21 04:07:37;;;;;;;19.13;4.70;;;;;;;;;;5029546;28;20498;-69
2022/06/21 04:10:38;;;;;;;17.73;5.00;;;;;;;;;;5037724;28;20056;-66
2022/06/21 04:13:26;;;;;;;17.80;5.00;;;;;;;;;;5030878;28;20068;-72
2022/06/21 04:16:04;;;;;;;20.05;5.30;;;;;;;;;;5036155;28;20060;-67
2022/06/21 04:18:39;;;;;;;13.70;5.13;;;;;;;;;;5038665;28;20321;-79
2022/06/21 04:21:20;;;;;;;20.70;4.97;;;;;;;;;;5037413;28;20148;-67
2022/06/21 04:23:59;;;;;;;18.33;5.47;;;;;;;;;;5037137;28;20079;-73
2022/06/21 04:26:28;;;;;;;18.67;5.03;;;;;;;;;;5035625;28;20060;-78
2022/06/21 04:29:03;;;;;;;14.07;4.80;;;;;;;;;;5035695;28;20490;-77
2022/06/21 04:31:44;;;;;;;20.30;5.10;;;;;;;;;;5038080;28;20423;-72
2022/06/21 04:34:26;;;;;;;24.73;5.15;;;;;;;;;;5038308;28;20036;-71
2022/06/21 04:37:00;;;;;;;25.55;5.93;;;;;;;;;;5031585;28;20041;-69
2022/06/21 04:39:30;;;;;;;16.95;5.78;;;;;;;;;;5036663;28;20068;-69
2022/06/21 04:42:05;;;;;;;20.80;5.32;;;;;;;;;;5040623;28;20056;-69
2022/06/21 04:44:42;;;;;;;18.30;5.65;;;;;;;;;;5036296;28;20163;-76
2022/06/21 04:47:28;;;;;;;15.50;5.07;;;;;;;;;;5038049;28;20057;-73
2022/06/21 04:50:03;;;;;;;21.08;5.22;;;;;;;;;;5039716;28;20576;-69
2022/06/21 04:52:39;;;;;;;24.48;5.32;;;;;;;;;;5035920;28;20057;-70
2022/06/21 04:55:12;;;;;;;19.70;5.57;;;;;;;;;;5033982;28;20059;-75
2022/06/21 04:57:38;;;;;;;17.70;5.35;;;;;;;;;;5039386;28;20048;-73
2022/06/21 05:00:07;;;;;;;20.13;5.28;;;;;;;;;;5039527;28;20052;-70
2022/06/21 05:02:36;;;;;;;18.70;5.00;;;;;;;;;;5037389;28;20053;-70
2022/06/21 05:05:20;;;;;;;25.63;5.25;;;;;;;;;;5036614;28;20395;-71
2022/06/21 05:07:54;;;;;;;18.17;5.47;;;;;;;;;;5039365;28;20045;-68
2022/06/21 05:10:31;;;;;;;20.53;4.87;;;;;;;;;;5038953;28;20053;-70
2022/06/21 05:13:01;;;;;;;18.75;4.57;;;;;;;;;;5038601;28;20071;-73
2022/06/21 05:15:33;;;;;;;16.95;5.28;;;;;;;;;;5037192;28;20057;-74
2022/06/21 05:18:05;;;;;;;20.77;5.78;;;;;;;;;;5040343;28;20076;-73
2022/06/21 05:20:35;;;;;;;19.63;5.40;;;;;;;;;;5039419;28;20053;-70
2022/06/21 05:23:04;;;;;;;23.55;5.55;;;;;;;;;;5042562;28;20057;-70
2022/06/21 05:25:40;;;;;;;21.02;5.15;;;;;;;;;;5037153;28;20064;-75
2022/06/21 05:28:18;;;;;;;20.38;5.75;;;;;;;;;;5034113;28;20507;-72
2022/06/21 05:31:11;;;;;;;17.70;5.03;;;;;;;;;;5038039;28;20045;-73
2022/06/21 05:33:58;;;;;;;21.50;5.03;;;;;;;;;;5034391;28;20061;-73
2022/06/21 05:36:31;;;;;;;19.23;5.25;;;;;;;;;;5034360;28;20040;-73
2022/06/21 05:39:04;;;;;;;20.45;5.85;;;;;;;;;;5039580;28;20053;-76
2022/06/21 05:41:38;;;;;;;23.83;5.97;;;;;;;;;;5034955;28;20049;-69
2022/06/21 05:44:13;;;;;;;20.23;5.65;;;;;;;;;;5038641;28;20054;-73
2022/06/21 05:46:54;;;;;;;18.30;5.60;;;;;;;;;;5034712;28;20175;-72
2022/06/21 05:49:24;;;;;;;16.73;4.90;;;;;;;;;;5038846;28;20041;-71
2022/06/21 05:51:52;;;;;;;18.15;5.30;;;;;;;;;;5038607;28;20044;-74
2022/06/21 05:54:21;;;;;;;17.85;4.70;;;;;;;;;;5041101;28;20076;-75
2022/06/21 05:56:49;;;;;;;19.65;5.50;;;;;;;;;;5037404;28;20196;-73
2022/06/21 05:59:17;;;;;;;18.63;5.25;;;;;;;;;;5038510;28;20486;-72
2022/06/21 06:01:46;;;;;;;21.58;5.38;;;;;;;;;;5041385;28;20057;-71
2022/06/21 06:04:22;;;;;;;17.40;5.78;;;;;;;;;;5036668;28;20057;-70
2022/06/21 06:06:48;;;;;;;19.90;5.45;;;;;;;;;;5038984;28;20075;-70
2022/06/21 06:09:19;;;;;;;21.38;5.25;;;;;;;;;;5041418;28;20045;-75
2022/06/21 06:11:58;;;;;;;18.02;5.22;;;;;;;;;;5036175;28;20072;-71
2022/06/21 06:14:31;;;;;;;16.45;5.40;;;;;;;;;;5038125;28;20045;-70
2022/06/21 06:16:59;;;;;;;21.77;6.15;;;;;;;;;;5035581;28;20053;-71
2022/06/21 06:19:38;;;;;;;26.73;5.80;;;;;;;;;;5037735;28;20064;-70
2022/06/21 06:22:33;;;;;;;17.55;5.63;;;;;;;;;;5036800;28;20110;-72
2022/06/21 06:25:05;;;;;;;24.17;5.47;;;;;;;;;;5038348;28;20087;-70
2022/06/21 06:27:45;;;;;;;18.67;5.13;;;;;;;;;;5040883;28;20874;-74
2022/06/21 06:30:16;;;;;;;19.10;4.85;;;;;;;;;;5040988;28;20056;-70
2022/06/21 06:32:49;;;;;;;19.45;5.55;;;;;;;;;;5038298;28;20090;-72
2022/06/21 06:35:20;;;;;;;20.60;5.63;;;;;;;;;;5037748;28;20461;-70
2022/06/21 06:37:46;;;;;;;18.42;5.22;;;;;;;;;;5037684;28;20045;-72
2022/06/21 06:40:33;;;;;;;18.95;5.03;;;;;;;;;;5039832;28;20482;-72
2022/06/21 06:43:07;;;;;;;23.25;5.25;;;;;;;;;;5035985;28;20083;-74
2022/06/21 06:45:35;;;;;;;21.67;5.53;;;;;;;;;;5038852;28;20351;-73
2022/06/21 06:48:20;;;;;;;18.52;5.32;;;;;;;;;;5028078;28;20388;-71
2022/06/21 06:50:56;;;;;;;26.60;6.57;;;;;;;;;;5026810;28;20437;-71
2022/06/21 06:53:30;;;;;;;21.77;5.75;;;;;;;;;;5036721;28;20419;-71
2022/06/21 06:56:03;;;;;;;20.83;5.22;;;;;;;;;;5042295;28;20049;-65
2022/06/21 06:58:48;;;;;;;25.65;5.72;;;;;;;;;;5033497;28;20044;-69
2022/06/21 07:01:20;;;;;;;22.27;5.32;;;;;;;;;;5035085;28;20060;-73
2022/06/21 07:03:55;;;;;;;17.80;5.53;;;;;;;;;;5033550;28;20507;-76
2022/06/21 07:06:44;;;;;;;26.17;5.28;;;;;;;;;;5034686;28;20171;-70
2022/06/21 07:09:28;;;;;;;22.40;6.15;;;;;;;;;;5041005;28;20053;-71
2022/06/21 07:12:06;;;;;;;32.38;6.07;;;;;;;;;;5045057;28;20060;-69
2022/06/21 07:14:33;;;;;;;28.27;5.65;;;;;;;;;;5033051;28;20051;-70
2022/06/21 07:17:27;;;;;;;37.60;6.55;;;;;;;;;;5036957;28;20131;-70
2022/06/21 07:19:55;;;;;;;19.83;6.28;;;;;;;;;;5040654;28;20079;-72
2022/06/21 07:22:24;;;;;;;24.85;6.38;;;;;;;;;;5033403;28;20044;-69
2022/06/21 07:24:58;;;;;;;24.63;6.30;;;;;;;;;;5041151;28;20503;-69
2022/06/21 07:27:28;;;;;;;27.30;6.70;;;;;;;;;;5041192;28;20053;-66
2022/06/21 07:30:09;;;;;;;25.38;7.20;;;;;;;;;;5036421;28;20136;-73
2022/06/21 07:33:16;;;;;;;21.95;6.70;;;;;;;;;;5028391;28;20064;-76
2022/06/21 07:35:50;;;;;;;22.15;6.80;;;;;;;;;;5012681;28;20042;-74
2022/06/21 07:38:56;;;;;;;28.65;7.35;;;;;;;;;;5015664;28;20058;-72
2022/06/21 07:41:31;;;;;;;28.50;6.80;;;;;;;;;;4939175;28;20050;-70
2022/06/21 07:44:02;;;;;;;23.25;7.15;;;;;;;;;;4963188;28;20054;-70
2022/06/21 07:46:34;;;;;;;21.92;7.05;;;;;;;;;;4964065;28;20062;-71
2022/06/21 07:49:12;;;;;;;28.02;6.78;;;;;;;;;;4961488;28;20113;-71
2022/06/21 07:51:47;;;;;;;22.25;6.75;;;;;;;;;;4962306;28;20065;-68
2022/06/21 07:54:20;;;;;;;23.83;6.40;;;;;;;;;;4957467;28;20051;-71
2022/06/21 07:56:53;;;;;;;22.33;6.90;;;;;;;;;;4953213;28;20043;-73
2022/06/21 07:59:39;;;;;;;20.77;6.28;;;;;;;;;;4963067;28;20050;-75
2022/06/21 08:08:23;;;;;;;19.15;5.93;;;;;;;;;;4923590;29;20534;-71
2022/06/21 08:11:25;;;;;;;24.25;6.63;;;;;;;;;;4921338;29;20063;-70
2022/06/21 08:13:51;;;;;;;22.42;6.50;;;;;;;;;;4926406;29;20485;-69
2022/06/21 08:16:21;;;;;;;14.68;5.53;;;;;;;;;;4957106;28;20074;-72
2022/06/21 08:19:02;;;;;;;22.17;7.18;;;;;;;;;;4970153;28;20053;-71
2022/06/21 08:21:37;;;;;;;20.80;5.88;;;;;;;;;;4973292;28;20054;-70
2022/06/21 08:24:10;;;;;;;20.90;5.93;;;;;;;;;;4980286;28;20086;-76
2022/06/21 08:26:49;;;;;;;16.07;5.00;;;;;;;;;;4975829;28;20054;-70
2022/06/21 08:29:22;;;;;;;15.40;5.50;;;;;;;;;;4980137;28;20160;-70
2022/06/21 08:32:00;;;;;;;26.23;6.20;;;;;;;;;;4976173;28;20055;-70
2022/06/21 08:34:34;;;;;;;19.45;5.25;;;;;;;;;;4979283;28;20068;-70
2022/06/21 08:37:26;;;;;;;20.05;5.70;;;;;;;;;;4982181;28;20515;-69
2022/06/21 08:39:59;;;;;;;24.63;5.60;;;;;;;;;;4983359;28;20433;-72
2022/06/21 08:43:02;;;;;;;18.88;5.72;;;;;;;;;;4982065;28;20101;-71
2022/06/21 08:46:02;;;;;;;23.08;6.72;;;;;;;;;;5038219;28;20405;-68
2022/06/21 08:48:51;;;;;;;22.40;6.30;;;;;;;;;;5032753;28;20444;-69
2022/06/21 08:51:38;;;;;;;17.13;5.85;;;;;;;;;;5039467;28;20544;-69
2022/06/21 08:54:41;;;;;;;20.73;5.93;;;;;;;;;;5045262;28;20053;-69
2022/06/21 08:57:34;;;;;;;22.17;5.65;;;;;;;;;;5026681;28;20487;-81
2022/06/21 09:00:03;;;;;;;23.52;5.68;;;;;;;;;;5029697;28;20480;-70
2022/06/21 09:02:55;;;;;;;16.73;5.40;;;;;;;;;;5025242;28;20049;-71
2022/06/21 09:05:48;;;;;;;16.17;5.60;;;;;;;;;;5010374;28;20538;-72
2022/06/21 09:08:40;;;;;;;16.25;5.20;;;;;;;;;;5025969;28;20443;-70
2022/06/21 09:11:33;;;;;;;20.05;5.72;;;;;;;;;;5026420;28;20053;-77
2022/06/21 09:14:01;;;;;;;19.50;5.65;;;;;;;;;;5021548;28;20045;-72
2022/06/21 09:16:56;;;;;;;22.20;6.72;;;;;;;;;;5025088;28;20389;-73
2022/06/21 09:19:26;;;;;;;20.90;7.75;;;;;;;;;;5021445;28;20054;-69
2022/06/21 09:22:29;;;;;;;25.98;7.90;;;;;;;;;;5025686;28;20062;-69
2022/06/21 09:25:07;;;;;;;29.90;7.97;;;;;;;;;;5022338;28;20179;-71
2022/06/21 09:27:46;;;;;;;25.63;7.68;;;;;;;;;;5024332;28;20136;-70
2022/06/21 09:30:21;;;;;;;26.17;7.63;;;;;;;;;;5026348;28;20214;-71
2022/06/21 09:32:58;;;;;;;19.40;7.55;;;;;;;;;;5030213;28;20117;-70
2022/06/21 09:35:53;;;;;;;24.88;6.95;;;;;;;;;;5039886;28;20113;-74
2022/06/21 09:38:35;;;;;;;25.50;7.65;;;;;;;;;;5034769;28;20043;-72
2022/06/21 09:41:21;;;;;;;21.85;6.38;;;;;;;;;;5040594;28;20048;-78
2022/06/21 09:44:00;;;;;;;25.42;6.93;;;;;;;;;;5035742;28;20165;-69
2022/06/21 09:46:46;;;;;;;25.95;7.13;;;;;;;;;;5042329;28;20068;-74
2022/06/21 09:49:32;;;;;;;21.80;6.65;;;;;;;;;;5040713;28;20045;-79
2022/06/21 09:52:30;;;;;;;22.48;6.85;;;;;;;;;;5048528;28;20121;-75
2022/06/21 09:55:18;;;;;;;19.55;6.68;;;;;;;;;;5036084;28;20057;-73
2022/06/21 09:58:06;;;;;;;23.60;7.25;;;;;;;;;;5039465;28;20047;-71
2022/06/21 10:00:44;;;;;;;23.63;6.53;;;;;;;;;;5046478;28;20045;-73
2022/06/21 10:03:28;;;;;;;24.27;6.75;;;;;;;;;;5049667;28;20045;-81
2022/06/21 10:05:54;;;;;;;;;;;;;;;;;;5033482;28;20067;-77
2022/06/21 10:08:38;;;;;;;25.85;7.28;;;;;;;;;;5046143;28;20001;-79
2022/06/21 10:11:10;;;;;;;23.02;7.15;;;;;;;;;;5049535;28;20356;-78
2022/06/21 10:13:45;;;;;;;23.90;6.72;;;;;;;;;;5041393;28;20498;-72
2022/06/21 10:16:14;;;;;;;22.05;5.82;;;;;;;;;;5045393;28;20414;-78
2022/06/21 10:19:05;;;;;;;23.98;6.60;;;;;;;;;;5053667;28;20153;-73
2022/06/21 10:21:31;;;;;;;21.10;6.53;;;;;;;;;;5050470;28;20048;-72
2022/06/21 10:24:18;;;;;;;19.90;6.03;;;;;;;;;;5048010;28;20055;-75
2022/06/21 10:27:06;;;;;;;25.05;5.95;;;;;;;;;;5048941;28;20056;-69
2022/06/21 10:30:16;;;;;;;28.00;6.28;;;;;;;;;;5040862;28;20038;-71
2022/06/21 10:32:54;;;;;;;19.15;5.30;;;;;;;;;;5017939;28;20150;-69
2022/06/21 10:35:28;;;;;;;16.85;5.38;;;;;;;;;;5008991;28;20041;-70
2022/06/21 10:38:18;;;;;;;18.48;5.43;;;;;;;;;;5006367;28;20046;-73
2022/06/21 10:41:09;;;;;;;19.17;5.90;;;;;;;;;;4992496;28;20069;-72
2022/06/21 10:43:35;;;;;;;21.63;6.70;;;;;;;;;;4988579;28;20096;-71
2022/06/21 10:46:25;;;;;;;22.27;6.70;;;;;;;;;;4986932;28;20058;-72
2022/06/21 10:49:16;;;;;;;24.73;6.63;;;;;;;;;;4997517;28;20068;-74
2022/06/21 10:52:00;;;;;;;21.38;6.38;;;;;;;;;;5004448;28;20181;-71
2022/06/21 10:54:44;;;;;;;20.48;6.75;;;;;;;;;;4998948;28;20058;-70
2022/06/21 10:57:37;;;;;;;23.35;6.88;;;;;;;;;;4989964;28;20054;-75
2022/06/21 11:03:14;;;;;;;28.20;7.35;;;;;;;;;;4991436;28;20137;-75
2022/06/21 11:05:52;;;;;;;24.80;7.40;;;;;;;;;;4997523;28;20054;-75
2022/06/21 11:08:40;;;;;;;24.05;6.90;;;;;;;;;;5032208;28;20049;-70
2022/06/21 11:11:14;;;;;;;20.33;7.47;;;;;;;;;;5029913;28;20053;-76
2022/06/21 11:13:45;;;;;;;22.58;7.65;;;;;;;;;;5033312;28;20474;-78
2022/06/21 11:16:31;;;;;;;22.77;7.43;;;;;;;;;;5041216;28;20057;-84
2022/06/21 11:19:16;;;;;;;29.60;8.20;;;;;;;;;;5036676;28;20069;-75
2022/06/21 11:21:54;;;;;;;23.45;7.18;;;;;;;;;;5038321;28;20045;-72
2022/06/21 11:24:41;;;;;;;25.65;7.55;;;;;;;;;;5043531;28;20049;-71
2022/06/21 11:27:18;;;;;;;22.08;6.80;;;;;;;;;;5039436;28;20059;-76
2022/06/21 11:30:05;;;;;;;22.77;6.50;;;;;;;;;;5032469;28;20045;-75
2022/06/21 11:33:04;;;;;;;23.83;6.65;;;;;;;;;;5038332;28;20122;-72
2022/06/21 11:36:08;;;;;;;21.83;6.53;;;;;;;;;;5031997;28;20120;-72
2022/06/21 11:38:40;;;;;;;22.92;6.60;;;;;;;;;;5043986;28;20052;-74
2022/06/21 11:42:05;;;;;;;19.38;5.60;;;;;;;;;;5045536;28;20483;-71
2022/06/21 11:45:04;;;;;;;23.90;5.95;;;;;;;;;;5038450;28;20173;-74
2022/06/21 11:48:00;;;;;;;22.80;6.20;;;;;;;;;;5039007;28;20105;-68
2022/06/21 11:50:44;;;;;;;15.93;5.57;;;;;;;;;;5047294;28;20106;-71
2022/06/21 11:53:10;;;;;;;17.92;5.53;;;;;;;;;;5038223;28;20053;-70
2022/06/21 11:56:06;;;;;;;26.80;6.35;;;;;;;;;;5050249;28;20041;-75
2022/06/21 11:58:42;;;;;;;19.33;6.03;;;;;;;;;;5050998;28;20045;-72
2022/06/21 12:01:22;;;;;;;22.50;6.60;;;;;;;;;;5039203;28;20599;-76
2022/06/21 12:04:30;;;;;;;25.55;7.40;;;;;;;;;;5045066;28;20132;-76
2022/06/21 12:07:03;;;;;;;28.33;7.47;;;;;;;;;;5040686;28;20056;-76
2022/06/21 12:09:41;;;;;;;24.25;5.93;;;;;;;;;;5047172;28;20143;-78
2022/06/21 12:12:18;;;;;;;21.60;6.10;;;;;;;;;;5042163;28;20045;-76
2022/06/21 12:14:56;;;;;;;29.00;6.93;;;;;;;;;;5043342;28;20041;-79
2022/06/21 12:17:34;;;;;;;21.58;6.28;;;;;;;;;;5049688;28;20416;-76
2022/06/21 12:20:09;;;;;;;24.15;6.20;;;;;;;;;;5044039;28;20061;-75
2022/06/21 12:22:40;;;;;;;20.33;5.32;;;;;;;;;;5037250;28;20039;-79
2022/06/21 12:25:18;;;;;;;22.38;5.78;;;;;;;;;;5052492;28;20468;-76
2022/06/21 12:27:44;;;;;;;22.08;5.53;;;;;;;;;;5059304;28;20061;-75
2022/06/21 12:30:14;;;;;;;21.58;6.07;;;;;;;;;;5035512;28;20170;-76
2022/06/21 12:32:39;;;;;;;24.17;5.85;;;;;;;;;;5039289;28;20362;-78
2022/06/21 12:35:14;;;;;;;22.95;6.82;;;;;;;;;;5038899;28;20041;-77
2022/06/21 12:37:45;;;;;;;21.33;5.00;;;;;;;;;;5034630;28;20215;-77
2022/06/21 12:40:31;;;;;;;22.42;6.05;;;;;;;;;;5050677;28;20048;-78
2022/06/21 12:43:25;;;;;;;26.23;5.80;;;;;;;;;;5036209;28;20519;-79
2022/06/21 12:45:54;;;;;;;25.25;6.28;;;;;;;;;;5039000;28;20137;-75
2022/06/21 12:48:57;;;;;;;24.20;5.65;;;;;;;;;;5033622;28;20095;-76
2022/06/21 12:51:53;;;;;;;20.77;5.68;;;;;;;;;;5051829;28;20056;-77
2022/06/21 12:54:46;;;;;;;22.30;6.25;;;;;;;;;;5042908;28;20040;-77
2022/06/21 12:57:24;;;;;;;22.27;6.32;;;;;;;;;;5042113;28;20048;-76
2022/06/21 13:00:43;;;;;;;25.63;5.95;;;;;;;;;;5037164;28;20443;-78
2022/06/21 13:03:45;;;;;;;21.45;5.57;;;;;;;;;;5036709;28;20053;-75
2022/06/21 13:06:42;;;;;;;16.27;5.55;;;;;;;;;;5027672;28;20065;-79
2022/06/21 13:09:33;;;;;;;18.42;5.43;;;;;;;;;;5040339;28;20049;-78
2022/06/21 13:12:36;;;;;;;20.23;5.38;;;;;;;;;;5043241;28;20044;-77
2022/06/21 13:15:26;;;;;;;18.70;5.10;;;;;;;;;;5045203;28;20057;-78
2022/06/21 13:18:12;;;;;;;18.13;5.15;;;;;;;;;;5054771;28;20045;-78
2022/06/21 13:21:05;;;;;;;22.52;6.25;;;;;;;;;;5033618;28;20059;-77
2022/06/21 13:23:52;;;;;;;28.10;6.30;;;;;;;;;;5042566;28;20813;-77
2022/06/21 13:26:40;;;;;;;20.25;5.90;;;;;;;;;;5037712;28;20053;-78
2022/06/21 13:29:17;;;;;;;22.60;5.68;;;;;;;;;;5046200;28;20088;-76
2022/06/21 13:31:49;;;;;;;20.95;6.85;;;;;;;;;;5054678;28;20052;-80
2022/06/21 13:34:38;;;;;;;23.25;5.75;;;;;;;;;;5047293;28;20437;-78
2022/06/21 13:37:17;;;;;;;22.20;5.93;;;;;;;;;;5046170;28;20118;-78
2022/06/21 13:40:02;;;;;;;16.92;4.85;;;;;;;;;;5040338;28;20321;-76
2022/06/21 13:42:39;;;;;;;18.73;5.03;;;;;;;;;;5040183;28;20041;-76
2022/06/21 13:45:17;;;;;;;22.55;5.35;;;;;;;;;;5039766;28;20055;-76
2022/06/21 13:47:51;;;;;;;21.20;5.35;;;;;;;;;;5045225;28;20044;-77
2022/06/21 13:50:51;;;;;;;17.17;5.00;;;;;;;;;;5048512;28;20423;-76
2022/06/21 13:53:26;;;;;;;17.02;4.90;;;;;;;;;;5045146;28;20049;-79
2022/06/21 13:56:01;;;;;;;15.88;4.50;;;;;;;;;;5040164;28;20470;-79
2022/06/21 13:58:36;;;;;;;22.70;4.88;;;;;;;;;;5044039;28;20185;-75
2022/06/21 14:01:11;;;;;;;26.13;4.95;;;;;;;;;;5039382;28;20140;-75
2022/06/21 14:04:17;;;;;;;20.55;4.82;;;;;;;;;;5039659;28;20037;-76
2022/06/21 14:07:27;;;;;;;25.27;4.40;;;;;;;;;;5042514;28;20053;-78
2022/06/21 14:09:56;;;;;;;16.38;4.43;;;;;;;;;;5037273;28;20113;-79
2022/06/21 14:12:51;;;;;;;19.20;4.45;;;;;;;;;;5037552;28;20041;-79
2022/06/21 14:15:35;;;;;;;22.77;4.80;;;;;;;;;;5037640;28;20138;-78
2022/06/21 14:18:14;;;;;;;14.07;4.57;;;;;;;;;;5030562;28;20293;-79
2022/06/21 14:20:57;;;;;;;20.27;4.78;;;;;;;;;;5042214;28;20049;-81
2022/06/21 14:23:30;;;;;;;15.75;4.95;;;;;;;;;;5029335;28;20112;-81
2022/06/21 14:26:15;;;;;;;17.17;4.63;;;;;;;;;;5038349;28;20360;-79
2022/06/21 14:28:57;;;;;;;21.58;4.78;;;;;;;;;;5044950;28;20120;-80
2022/06/21 14:31:29;;;;;;;19.60;4.53;;;;;;;;;;5036974;28;20049;-80
2022/06/21 14:34:07;;;;;;;24.98;5.07;;;;;;;;;;5043312;28;20052;-78
2022/06/21 14:36:36;;;;;;;20.67;4.43;;;;;;;;;;5035448;28;20049;-77
2022/06/21 14:39:10;;;;;;;18.27;4.93;;;;;;;;;;5040249;28;20121;-78
2022/06/21 14:41:42;;;;;;;22.88;5.97;;;;;;;;;;5020551;28;20103;-79
2022/06/21 14:44:27;;;;;;;31.42;7.38;;;;;;;;;;5039984;28;20140;-78
2022/06/21 14:47:20;;;;;;;22.10;5.65;;;;;;;;;;5039156;28;20128;-80
2022/06/21 14:49:58;;;;;;;20.42;5.35;;;;;;;;;;5043020;28;20041;-69
2022/06/21 14:52:54;;;;;;;19.33;4.20;;;;;;;;;;5047661;28;20486;-72
2022/06/21 14:55:51;;;;;;;14.43;4.30;;;;;;;;;;5045302;28;20060;-75
2022/06/21 14:58:39;;;;;;;20.63;4.78;;;;;;;;;;5046672;28;20392;-71
2022/06/21 15:01:13;;;;;;;25.58;4.55;;;;;;;;;;5040443;28;20171;-79
2022/06/21 15:04:11;;;;;;;16.70;4.40;;;;;;;;;;5029506;28;20045;-71
2022/06/21 15:06:39;;;;;;;16.42;4.22;;;;;;;;;;5043138;28;20647;-70
2022/06/21 15:09:20;;;;;;;28.05;4.93;;;;;;;;;;5043909;28;20046;-71
2022/06/21 15:12:14;;;;;;;13.88;4.10;;;;;;;;;;5039925;28;20098;-75
2022/06/21 15:14:56;;;;;;;21.92;4.40;;;;;;;;;;5035454;28;20268;-72
2022/06/21 15:17:37;;;;;;;22.40;4.75;;;;;;;;;;5038501;28;20056;-78
2022/06/21 15:20:16;;;;;;;19.58;4.78;;;;;;;;;;5043153;28;20048;-70
2022/06/21 15:22:51;;;;;;;21.58;4.28;;;;;;;;;;5031250;28;20052;-70
2022/06/21 15:25:23;;;;;;;23.02;4.72;;;;;;;;;;5033651;28;20067;-68
2022/06/21 15:28:15;;;;;;;16.40;4.63;;;;;;;;;;5034970;28;20048;-75
2022/06/21 15:30:54;;;;;;;19.02;4.72;;;;;;;;;;5039822;28;20067;-68
2022/06/21 15:33:46;;;;;;;23.90;4.75;;;;;;;;;;5032124;28;20052;-70
2022/06/21 15:36:32;;;;;;;16.13;4.10;;;;;;;;;;5029130;28;20053;-68
2022/06/21 15:39:04;;;;;;;20.05;4.53;;;;;;;;;;5031113;28;20048;-72
2022/06/21 15:41:37;;;;;;;14.35;4.57;;;;;;;;;;5038240;28;20384;-78
2022/06/21 15:44:30;;;;;;;18.83;5.07;;;;;;;;;;5047384;28;20057;-71
2022/06/21 15:50:13;;;;;;;20.20;4.90;;;;;;;;;;5034447;28;20101;-68
2022/06/21 15:53:03;;;;;;;18.42;4.97;;;;;;;;;;5026756;28;20483;-66
2022/06/21 15:55:43;;;;;;;18.15;4.15;;;;;;;;;;5028874;28;20067;-64